Time;durP1;ratioP1;P1;durP2;ratioP2;P2;SDS_P1;SDS_P2;PMS_P1;PMS_P2;Temp;Humidity;BMP_temperature;BMP_pressure;BME280_temperature;BME280_humidity;BME280_pressure;Samples;Min_cycle;Max_cycle;Signal;HPM_P1;HPM_P2
2023/07/21 00:02:46;;;;;;;;;;;;;;;15.91;67.82;98561.03;6196835;23;19923;-92
2023/07/21 00:05:37;;;;;;;;;;;;;;;15.92;68.04;98555.16;6196739;23;20273;-93
2023/07/21 00:08:37;;;;;;;;;;;;;;;15.96;67.74;98567.06;6223505;23;19920;-88
2023/07/21 00:11:38;;;;;;;;;;;;;;;15.96;67.87;98558.78;6247112;23;19920;-94
2023/07/21 00:14:05;;;;;;;;;;;;;;;15.96;68.01;98558.00;6220373;23;19969;-90
2023/07/21 00:16:33;;;;;;;;;;;;;;;15.90;68.49;98551.19;6220493;23;19920;-90
2023/07/21 00:19:00;;;;;;;;;;;;;;;15.89;68.43;98557.84;6222735;23;19907;-91
2023/07/21 00:21:26;;;;;;;;;;;;;;;15.84;68.37;98558.16;6221192;23;20002;-91
2023/07/21 00:24:33;;;;;;;;;;;;;;;15.81;68.48;98553.38;6195594;23;19966;-88
2023/07/21 00:27:01;;;;;;;;;;;;;;;15.64;69.06;98551.88;6197841;23;19916;-90
2023/07/21 00:29:51;;;;;;;;;;;;;;;15.64;69.24;98551.88;6245868;23;19974;-89
2023/07/21 00:32:18;;;;;;;;;;;;;;;15.71;69.64;98546.50;6220567;23;20274;-90
2023/07/21 00:34:55;;;;;;;;;;;;;;;15.70;69.11;98548.47;6224685;23;19915;-91
2023/07/21 00:38:11;;;;;;;;;;;;;;;15.77;69.13;98558.84;6248395;23;20010;-89
2023/07/21 00:40:41;;;;;;;;;;;;;;;15.79;69.23;98555.69;6220944;23;20420;-90
2023/07/21 00:43:17;;;;;;;;;;;;;;;15.79;69.25;98561.22;6224773;23;19919;-93
2023/07/21 00:46:12;;;;;;;;;;;;;;;15.79;69.71;98566.72;6226668;23;19920;-95
2023/07/21 00:48:39;;;;;;;;;;;;;;;15.77;69.80;98558.84;6195517;23;19927;-90
2023/07/21 00:51:18;;;;;;;;;;;;;;;15.77;69.94;98561.59;6247013;22;19990;-92
2023/07/21 00:54:20;;;;;;;;;;;;;;;15.79;69.74;98559.25;6222387;23;20472;-95
2023/07/21 00:57:26;;;;;;;;;;;;;;;15.84;69.21;98574.69;6197576;23;19916;-93
2023/07/21 01:00:31;;;;;;;;;;;;;;;15.80;68.78;98562.81;6197996;23;19926;-90
2023/07/21 01:03:01;;;;;;;;;;;;;;;15.86;68.93;98562.16;6221471;23;20385;-88
2023/07/21 01:05:28;;;;;;;;;;;;;;;15.90;68.67;98563.00;6196357;23;19926;-90
2023/07/21 01:07:54;;;;;;;;;;;;;;;15.95;68.37;98564.66;6223537;23;19977;-90
2023/07/21 01:10:23;;;;;;;;;;;;;;;15.96;68.55;98575.31;6229213;23;19919;-90
2023/07/21 01:13:26;;;;;;;;;;;;;;;15.97;68.35;98573.38;6222056;23;20045;-93
2023/07/21 01:16:20;;;;;;;;;;;;;;;15.92;68.48;98574.44;6197237;23;19947;-90
2023/07/21 01:18:50;;;;;;;;;;;;;;;15.88;68.63;98573.59;6196067;23;19951;-95
2023/07/21 01:21:20;;;;;;;;;;;;;;;15.91;68.75;98575.63;6222991;23;19954;-90
2023/07/21 01:24:11;;;;;;;;;;;;;;;15.91;68.59;98572.06;6197041;23;19925;-94
2023/07/21 01:26:56;;;;;;;;;;;;;;;15.89;68.82;98574.38;6234198;22;19923;-89
2023/07/21 01:29:30;;;;;;;;;;;;;;;15.92;68.99;98570.91;6276665;22;20319;-90
2023/07/21 01:32:27;;;;;;;;;;;;;;;15.95;68.74;98578.44;6225993;22;19988;-90
2023/07/21 01:34:55;;;;;;;;;;;;;;;15.93;68.40;98580.78;6225080;22;19994;-91
2023/07/21 01:37:28;;;;;;;;;;;;;;;15.91;68.91;98577.59;6224258;22;19920;-89
2023/07/21 01:39:56;;;;;;;;;;;;;;;15.93;68.91;98589.03;6200636;22;19919;-89
2023/07/21 01:42:35;;;;;;;;;;;;;;;15.94;69.12;98583.16;6278414;22;19935;-91
2023/07/21 01:45:26;;;;;;;;;;;;;;;15.97;69.07;98587.16;6260723;22;19919;-92
2023/07/21 01:47:56;;;;;;;;;;;;;;;16.00;68.84;98586.41;6231925;22;20002;-93
2023/07/21 01:50:42;;;;;;;;;;;;;;;16.04;69.09;98581.75;6229687;22;19919;-92
2023/07/21 02:13:51;;;;;;;;;;;;;;;16.06;68.62;98597.91;6291432;22;19975;-93
2023/07/21 02:17:35;;;;;;;;;;;;;;;16.02;68.65;98577.75;6285455;22;19926;-92
2023/07/21 02:23:22;;;;;;;;;;;;;;;16.27;68.61;98603.03;6188140;23;19970;-92
2023/07/21 02:25:48;;;;;;;;;;;;;;;16.25;68.34;98603.38;6162311;23;19936;-95
2023/07/21 02:28:15;;;;;;;;;;;;;;;16.23;68.11;98608.47;6137661;23;19920;-92
2023/07/21 02:30:45;;;;;;;;;;;;;;;16.26;68.48;98599.47;6161259;22;19920;31
2023/07/21 02:49:08;;;;;;;;;;;;;;;16.44;68.04;98588.72;6235302;23;19927;-93
2023/07/21 02:55:22;;;;;;;;;;;;;;;16.38;67.66;98579.94;6184984;22;20057;-90
2023/07/21 03:00:56;;;;;;;;;;;;;;;16.47;67.23;98587.19;6220558;22;19924;-91
2023/07/21 03:10:06;;;;;;;;;;;;;;;16.45;67.48;98584.78;6233185;22;19923;-90
2023/07/21 03:12:34;;;;;;;;;;;;;;;16.40;67.63;98580.38;6235525;22;20002;-89
2023/07/21 03:15:33;;;;;;;;;;;;;;;16.33;67.10;98587.75;6249868;22;19971;-91
2023/07/21 03:18:27;;;;;;;;;;;;;;;16.34;67.15;98584.63;6237123;23;19934;-90
2023/07/21 03:21:20;;;;;;;;;;;;;;;16.43;67.66;98587.13;6237423;23;19920;-91
2023/07/21 03:24:12;;;;;;;;;;;;;;;16.50;66.80;98586.47;6209086;23;20001;-89
2023/07/21 03:26:53;;;;;;;;;;;;;;;16.58;67.20;98583.41;6205807;23;19927;-90
2023/07/21 03:30:26;;;;;;;;;;;;;;;16.70;66.12;98587.16;6232446;23;19999;-93
2023/07/21 03:33:18;;;;;;;;;;;;;;;16.70;66.60;98573.34;6214877;23;19923;-92
2023/07/21 03:39:37;;;;;;;;;;;;;;;16.63;66.96;98585.88;6309307;22;19973;-90
2023/07/21 03:42:04;;;;;;;;;;;;;;;16.58;66.57;98588.16;6239920;22;19926;-89
2023/07/21 03:44:46;;;;;;;;;;;;;;;16.55;67.14;98584.16;6237911;22;19918;-92
2023/07/21 03:47:20;;;;;;;;;;;;;;;16.52;67.34;98589.63;6234027;22;19942;-92
2023/07/21 03:50:02;;;;;;;;;;;;;;;16.49;67.15;98595.88;6239414;22;19983;-93
2023/07/21 03:52:29;;;;;;;;;;;;;;;16.43;67.34;98598.97;6284236;22;20340;-96
2023/07/21 03:54:56;;;;;;;;;;;;;;;16.41;67.36;98615.06;6185237;22;20313;-91
2023/07/21 03:57:41;;;;;;;;;;;;;;;16.32;68.09;98609.00;6213422;22;19911;-92
2023/07/21 04:03:54;;;;;;;;;;;;;;;16.47;67.76;98614.78;6293945;22;19914;-92
2023/07/21 04:06:24;;;;;;;;;;;;;;;16.50;67.95;98614.03;6239403;22;19930;-91
2023/07/21 04:09:24;;;;;;;;;;;;;;;16.54;67.89;98614.88;6291817;22;19946;-91
2023/07/21 04:11:52;;;;;;;;;;;;;;;16.49;68.27;98627.03;6208901;22;19931;-91
2023/07/21 04:14:18;;;;;;;;;;;;;;;16.50;68.86;98617.59;6213315;22;20349;-91
2023/07/21 04:17:23;;;;;;;;;;;;;;;16.50;68.89;98623.09;6229118;22;19919;-93
2023/07/21 04:20:14;;;;;;;;;;;;;;;16.59;69.61;98626.41;6256797;22;19953;-91
2023/07/21 04:22:58;;;;;;;;;;;;;;;16.60;69.00;98625.25;6197982;23;19930;-95
2023/07/21 04:25:34;;;;;;;;;;;;;;;16.64;69.42;98623.31;6251892;23;19952;-95
2023/07/21 04:28:41;;;;;;;;;;;;;;;16.64;69.43;98628.06;6251504;23;19942;-91
2023/07/21 04:35:28;;;;;;;;;;;;;;;16.73;69.96;98625.84;6160595;23;19927;-90
2023/07/21 04:37:59;;;;;;;;;;;;;;;16.84;69.82;98632.34;6165363;23;19964;-92
2023/07/21 04:40:28;;;;;;;;;;;;;;;16.90;70.06;98630.84;6142640;23;19924;-90
2023/07/21 04:42:54;;;;;;;;;;;;;;;17.01;69.80;98633.75;6204708;22;20012;-92
2023/07/21 04:45:57;;;;;;;;;;;;;;;17.06;69.09;98625.19;6223838;23;19920;-94
2023/07/21 04:48:46;;;;;;;;;;;;;;;17.21;69.30;98630.88;6206219;23;19920;-93
2023/07/21 04:51:16;;;;;;;;;;;;;;;17.34;69.40;98624.75;6204482;23;19945;-89
2023/07/21 04:54:22;;;;;;;;;;;;;;;17.38;68.91;98633.91;6233496;23;19963;-89
2023/07/21 04:57:14;;;;;;;;;;;;;;;17.52;68.80;98619.47;6209486;23;19920;-94
2023/07/21 05:11:44;;;;;;;;;;;;;;;18.13;67.29;98614.63;6288872;22;19953;-92
2023/07/21 05:14:44;;;;;;;;;;;;;;;18.21;66.46;98615.47;6293892;22;19926;-89
2023/07/21 05:17:48;;;;;;;;;;;;;;;18.22;66.76;98617.06;6293451;22;19919;-92
2023/07/21 05:21:04;;;;;;;;;;;;;;;18.16;66.56;98615.81;6317270;22;19919;-94
2023/07/21 05:24:13;;;;;;;;;;;;;;;18.12;66.38;98615.00;6215192;22;19994;-92
2023/07/21 05:26:52;;;;;;;;;;;;;;;18.16;67.24;98607.53;6207571;22;19955;-91
2023/07/21 05:29:50;;;;;;;;;;;;;;;18.12;65.18;98607.50;6267345;22;20304;-91
2023/07/21 05:35:16;;;;;;;;;;;;;;;18.20;64.64;98602.81;6289546;22;19923;-93
2023/07/21 05:46:41;;;;;;;;;;;;;;;18.68;62.87;98600.06;6302762;22;19930;-92
2023/07/21 05:49:10;;;;;;;;;;;;;;;18.87;63.77;98597.03;6246472;22;19959;-93
2023/07/21 05:52:21;;;;;;;;;;;;;;;18.99;62.35;98596.72;6286008;22;19950;-94
2023/07/21 05:58:56;;;;;;;;;;;;;;;19.13;61.26;98598.00;6277631;22;19931;-88
2023/07/21 06:02:00;;;;;;;;;;;;;;;19.33;60.92;98602.03;6239990;22;19930;-89
2023/07/21 06:04:32;;;;;;;;;;;;;;;19.43;58.49;98594.94;6288459;22;19923;-86
2023/07/21 06:07:17;;;;;;;;;;;;;;;19.53;59.26;98607.28;6285942;22;19934;-88
2023/07/21 06:10:02;;;;;;;;;;;;;;;19.67;59.34;98601.81;6282823;22;20273;-90
2023/07/21 06:16:55;;;;;;;;;;;;;;;20.09;58.02;98597.53;6339203;22;19946;-92
2023/07/21 06:19:56;;;;;;;;;;;;;;;20.09;56.47;98594.78;6264954;22;19919;-94
2023/07/21 06:23:10;;;;;;;;;;;;;;;20.06;55.79;98592.78;6266437;22;19918;-94
2023/07/21 06:26:22;;;;;;;;;;;;;;;20.25;57.01;98594.41;6273245;22;19919;-92
2023/07/21 06:28:48;;;;;;;;;;;;;;;20.38;56.62;98590.84;6271292;22;20365;-95
2023/07/21 06:35:09;;;;;;;;;;;;;;;20.53;53.59;98586.13;6319846;22;19918;-93
2023/07/21 06:37:56;;;;;;;;;;;;;;;20.68;52.28;98583.31;6290502;22;19958;-94
2023/07/21 06:40:56;;;;;;;;;;;;;;;20.72;52.60;98587.66;6272152;22;19919;-93
2023/07/21 06:43:41;;;;;;;;;;;;;;;20.76;51.20;98587.66;6264049;22;19918;-93
2023/07/21 06:46:52;;;;;;;;;;;;;;;20.85;52.12;98594.38;6270507;22;19951;-92
2023/07/21 06:49:41;;;;;;;;;;;;;;;20.92;50.58;98576.13;6256791;22;19927;-93
2023/07/21 06:52:46;;;;;;;;;;;;;;;20.97;50.08;98582.06;6216488;23;19923;-96
2023/07/21 06:57:45;;;;;;;;;;;;;;;21.09;47.44;98576.09;6227982;22;19924;-91
2023/07/21 07:00:14;;;;;;;;;;;;;;;21.05;48.59;98586.41;6229157;22;20309;-96
2023/07/21 07:02:47;;;;;;;;;;;;;;;20.94;47.91;98582.09;6228590;22;19939;-95
2023/07/21 07:05:50;;;;;;;;;;;;;;;20.81;47.48;98592.81;6258430;22;19998;-95
2023/07/21 07:08:15;;;;;;;;;;;;;;;20.80;47.04;98597.59;6258479;22;19962;-95
2023/07/21 07:10:49;;;;;;;;;;;;;;;20.64;48.13;98591.66;6233667;22;19919;-96
2023/07/21 07:13:19;;;;;;;;;;;;;;;20.70;48.96;98592.06;6232142;22;19919;-94
2023/07/21 07:15:50;;;;;;;;;;;;;;;20.82;46.33;98578.53;6210246;22;19927;-94
2023/07/21 07:18:16;;;;;;;;;;;;;;;20.92;47.31;98587.25;6233066;22;19919;-94
2023/07/21 07:20:50;;;;;;;;;;;;;;;21.05;48.46;98582.84;6232144;22;20261;-93
2023/07/21 07:23:16;;;;;;;;;;;;;;;21.20;48.42;98584.41;6261312;22;19934;-93
2023/07/21 07:26:07;;;;;;;;;;;;;;;21.22;46.10;98584.75;6195591;23;19920;-93
2023/07/21 07:28:49;;;;;;;;;;;;;;;21.24;44.25;98589.94;6145848;23;19920;-94
2023/07/21 07:31:26;;;;;;;;;;;;;;;21.32;46.82;98588.72;6170582;23;19920;-96
2023/07/21 07:33:54;;;;;;;;;;;;;;;21.26;45.38;98590.34;6148005;23;19926;-94
2023/07/21 07:36:25;;;;;;;;;;;;;;;21.37;46.22;98593.09;6152610;23;19920;-95
2023/07/21 07:38:55;;;;;;;;;;;;;;;21.19;44.93;98598.69;6152852;23;19947;-95
2023/07/21 07:41:21;;;;;;;;;;;;;;;21.10;43.11;98594.34;6149322;23;19920;-95
2023/07/21 07:44:15;;;;;;;;;;;;;;;21.24;44.90;98599.06;6195935;22;20006;-96
2023/07/21 07:46:44;;;;;;;;;;;;;;;21.27;44.58;98600.25;6258517;22;19919;-94
2023/07/21 07:49:10;;;;;;;;;;;;;;;21.42;44.83;98598.22;6258430;22;19919;-94
2023/07/21 07:51:55;;;;;;;;;;;;;;;21.58;44.40;98601.34;6257659;22;19919;-95
2023/07/21 07:54:20;;;;;;;;;;;;;;;21.49;41.46;98604.56;6232358;22;19919;-94
2023/07/21 07:56:47;;;;;;;;;;;;;;;21.45;42.52;98605.78;6233074;22;20369;-94
2023/07/21 07:59:21;;;;;;;;;;;;;;;21.56;42.63;98600.97;6239536;22;19919;-94
2023/07/21 08:01:58;;;;;;;;;;;;;;;21.81;43.40;98604.41;6242768;22;19923;-94
2023/07/21 08:04:36;;;;;;;;;;;;;;;21.93;42.03;98600.38;6236113;22;20010;-91
2023/07/21 08:07:02;;;;;;;;;;;;;;;21.82;42.00;98605.22;6254867;22;19920;-91
2023/07/21 08:09:28;;;;;;;;;;;;;;;21.76;42.63;98610.41;6236969;22;19967;-92
2023/07/21 08:11:53;;;;;;;;;;;;;;;21.84;41.75;98607.59;6231115;22;19919;-94
2023/07/21 08:14:45;;;;;;;;;;;;;;;21.86;41.21;98597.63;6230883;22;19961;-92
2023/07/21 08:17:12;;;;;;;;;;;;;;;22.00;41.22;98599.53;6233533;22;20360;-93
2023/07/21 08:19:38;;;;;;;;;;;;;;;22.02;37.25;98602.72;6260037;22;19929;-93
2023/07/21 08:22:25;;;;;;;;;;;;;;;22.13;39.11;98611.78;6233348;22;19941;-91
2023/07/21 08:24:54;;;;;;;;;;;;;;;22.19;38.23;98596.25;6261081;22;19899;-96
2023/07/21 08:27:21;;;;;;;;;;;;;;;22.23;40.81;98602.59;6271443;22;19994;-96
2023/07/21 08:30:30;;;;;;;;;;;;;;;22.22;39.56;98614.16;6292664;22;19919;-94
2023/07/21 08:33:03;;;;;;;;;;;;;;;22.18;40.48;98610.56;6270631;22;19954;-96
2023/07/21 08:35:46;;;;;;;;;;;;;;;22.22;39.88;98619.72;6173855;22;19915;-95
2023/07/21 08:38:49;;;;;;;;;;;;;;;22.21;39.50;98604.97;6267975;22;19919;-96
2023/07/21 08:41:20;;;;;;;;;;;;;;;22.13;41.90;98613.78;6238418;22;19923;-95
2023/07/21 08:43:56;;;;;;;;;;;;;;;22.05;42.33;98619.41;6241290;22;19927;-95
2023/07/21 08:46:24;;;;;;;;;;;;;;;21.97;42.15;98620.63;6212294;22;19919;-94
2023/07/21 08:48:50;;;;;;;;;;;;;;;21.98;42.47;98618.63;6249356;22;19958;-94
2023/07/21 08:51:25;;;;;;;;;;;;;;;21.98;43.66;98621.41;6275790;22;19930;-96
2023/07/21 08:57:12;;;;;;;;;;;;;;;22.11;42.30;98616.94;6273790;22;19951;-95
2023/07/21 08:59:41;;;;;;;;;;;;;;;22.07;42.51;98610.63;6271867;22;19925;-94
2023/07/21 09:02:39;;;;;;;;;;;;;;;22.17;44.24;98612.56;6302072;22;19910;-95
2023/07/21 09:05:14;;;;;;;;;;;;;;;22.14;39.13;98618.91;6271485;22;20386;-95
2023/07/21 09:08:20;;;;;;;;;;;;;;;21.88;39.33;98630.59;6247547;22;19919;-96
2023/07/21 09:14:12;;;;;;;;;;;;;;;22.00;40.56;98616.25;6299534;22;19923;-94
2023/07/21 09:17:18;;;;;;;;;;;;;;;22.11;39.58;98618.94;6209904;23;19924;-94
2023/07/21 09:19:46;;;;;;;;;;;;;;;22.24;38.39;98614.50;6207014;23;19924;-94
2023/07/21 09:22:13;;;;;;;;;;;;;;;22.26;38.26;98618.47;6187696;23;19946;-96
2023/07/21 09:24:56;;;;;;;;;;;;;;;22.27;38.40;98608.91;6260692;23;19919;-94
2023/07/21 09:27:50;;;;;;;;;;;;;;;22.28;37.10;98610.53;6210597;23;19941;-96
2023/07/21 09:30:21;;;;;;;;;;;;;;;22.32;35.34;98616.06;6210938;23;19920;-94
2023/07/21 09:32:46;;;;;;;;;;;;;;;22.24;34.31;98608.94;6235856;23;19959;-93
2023/07/21 09:35:37;;;;;;;;;;;;;;;22.35;34.69;98609.69;6234900;23;19919;-95
2023/07/21 09:38:03;;;;;;;;;;;;;;;22.39;35.07;98609.66;6184862;23;19924;-94
2023/07/21 09:40:31;;;;;;;;;;;;;;;22.55;34.80;98606.31;6234232;23;20021;-94
2023/07/21 09:43:00;;;;;;;;;;;;;;;22.58;33.81;98608.28;6235657;23;19919;-93
2023/07/21 09:46:06;;;;;;;;;;;;;;;22.64;32.99;98613.00;6209597;23;19919;-95
2023/07/21 09:48:53;;;;;;;;;;;;;;;22.78;36.40;98606.53;6239255;22;19919;-94
2023/07/21 09:51:39;;;;;;;;;;;;;;;22.86;33.14;98599.66;6242119;22;19919;-94
2023/07/21 09:54:52;;;;;;;;;;;;;;;22.79;36.22;98602.53;6296699;22;19959;-94
2023/07/21 10:07:22;;;;;;;;;;;;;;;22.82;36.48;98598.13;6207608;23;19935;-91
2023/07/21 10:20:24;;;;;;;;;;;;;;;22.61;36.09;98605.47;6317452;22;19910;-92
2023/07/21 10:23:06;;;;;;;;;;;;;;;22.72;36.17;98599.81;6296770;22;19919;-89
2023/07/21 10:26:05;;;;;;;;;;;;;;;22.88;36.08;98610.38;6275004;22;19903;-93
2023/07/21 10:28:42;;;;;;;;;;;;;;;22.94;34.13;98612.34;6246122;22;19903;-93
2023/07/21 10:31:21;;;;;;;;;;;;;;;23.00;36.36;98600.75;6251782;22;19923;-91
2023/07/21 10:34:36;;;;;;;;;;;;;;;;;;;;;
2023/07/21 10:40:41;;;;;;;;;;;;;;;23.05;34.11;98597.53;6266079;22;19919;-94
2023/07/21 10:51:04;;;;;;;;;;;;;;;23.15;33.41;98589.03;6145244;23;19930;-95
2023/07/21 10:54:06;;;;;;;;;;;;;;;23.19;33.54;98572.28;6068640;23;19956;-93
2023/07/21 11:05:50;;;;;;;;;;;;;;;23.92;34.61;98587.72;6296925;22;19999;-93
2023/07/21 11:08:48;;;;;;;;;;;;;;;23.95;33.22;98584.06;6237660;22;19997;-95
2023/07/21 11:14:05;;;;;;;;;;;;;;;24.16;34.70;98580.16;6289800;22;19918;-93
2023/07/21 11:17:28;;;;;;;;;;;;;;;24.26;35.01;98581.22;6197588;23;19920;-93
2023/07/21 11:19:54;;;;;;;;;;;;;;;24.40;34.96;98580.97;6195598;23;19923;-93
2023/07/21 11:22:51;;;;;;;;;;;;;;;24.51;36.07;98584.44;6194433;23;19927;-95
2023/07/21 11:25:17;;;;;;;;;;;;;;;24.58;34.40;98586.31;6110554;23;20393;-93
2023/07/21 11:34:02;;;;;;;;;;;;;;;23.85;34.56;98591.38;6327770;22;19923;-95
2023/07/21 11:36:32;;;;;;;;;;;;;;;23.91;35.07;98581.34;6270278;22;19899;-96
2023/07/21 11:39:22;;;;;;;;;;;;;;;24.14;33.84;98583.38;6278813;22;19922;-96
2023/07/21 11:41:50;;;;;;;;;;;;;;;24.00;34.49;98578.00;6300012;22;19899;-95
2023/07/21 11:44:27;;;;;;;;;;;;;;;23.94;35.79;98581.69;6270609;22;19942;-96
2023/07/21 11:47:19;;;;;;;;;;;;;;;23.72;36.74;98582.00;6275872;22;19907;-96
2023/07/21 11:50:25;;;;;;;;;;;;;;;23.40;35.67;98588.75;6327850;22;19901;-95
2023/07/21 11:53:27;;;;;;;;;;;;;;;23.29;36.27;98578.94;6207925;23;19920;-96
2023/07/21 11:56:05;;;;;;;;;;;;;;;23.05;37.93;98603.91;6185040;23;19932;-94
2023/07/21 11:58:53;;;;;;;;;;;;;;;22.96;39.08;98609.16;6181533;23;19924;-95
2023/07/21 12:04:39;;;;;;;;;;;;;;;22.12;50.37;98657.53;6178309;23;19975;-96
2023/07/21 12:07:10;;;;;;;;;;;;;;;21.63;47.43;98653.78;6174688;23;19911;-95
2023/07/21 12:09:39;;;;;;;;;;;;;;;21.45;55.51;98651.06;6151047;23;20246;-95
2023/07/21 12:12:05;;;;;;;;;;;;;;;21.23;48.69;98641.97;6122412;23;19940;-96
2023/07/21 12:14:36;;;;;;;;;;;;;;;21.10;51.07;98638.03;6130506;23;19924;-94
2023/07/21 12:17:24;;;;;;;;;;;;;;;21.18;49.97;98639.59;6104679;23;19935;-95
2023/07/21 12:20:11;;;;;;;;;;;;;;;21.25;51.96;98645.13;6087925;23;20024;-96
2023/07/21 12:22:49;;;;;;;;;;;;;;;21.49;49.37;98629.59;6088699;23;20461;-96
2023/07/21 12:25:33;;;;;;;;;;;;;;;21.86;47.76;98638.59;6085612;23;19905;-95
2023/07/21 12:32:01;;;;;;;;;;;;;;;22.80;42.27;98628.41;6082147;23;19906;-94
2023/07/21 12:34:30;;;;;;;;;;;;;;;23.04;43.89;98627.38;6078664;23;19925;-95
2023/07/21 12:37:19;;;;;;;;;;;;;;;23.10;42.94;98624.94;6149277;22;19995;-94
2023/07/21 12:39:55;;;;;;;;;;;;;;;23.24;44.61;98629.56;6249102;22;19922;-95
2023/07/21 12:42:28;;;;;;;;;;;;;;;23.27;40.33;98629.53;6276870;22;19997;-93
2023/07/21 12:45:02;;;;;;;;;;;;;;;23.30;41.77;98630.72;6284461;22;20351;-93
2023/07/21 12:47:42;;;;;;;;;;;;;;;23.47;39.74;98621.34;6306180;22;19922;-93
2023/07/21 12:50:09;;;;;;;;;;;;;;;23.56;37.61;98624.41;6255278;22;19934;-92
2023/07/21 12:52:35;;;;;;;;;;;;;;;23.63;39.92;98618.75;6252949;22;19950;-95
2023/07/21 12:55:16;;;;;;;;;;;;;;;23.74;37.65;98610.28;6276503;22;19926;-96
2023/07/21 12:57:47;;;;;;;;;;;;;;;23.88;39.64;98612.88;6275577;22;19918;-94
2023/07/21 13:05:56;;;;;;;;;;;;;;;24.24;39.75;98601.19;6279053;22;19919;-93
2023/07/21 13:08:46;;;;;;;;;;;;;;;24.06;40.65;98604.25;6241909;23;20013;-95
2023/07/21 13:11:18;;;;;;;;;;;;;;;23.71;39.31;98618.69;6265287;23;19920;-95
2023/07/21 13:13:51;;;;;;;;;;;;;;;23.40;37.28;98613.06;6190253;23;20033;-95
2023/07/21 13:16:31;;;;;;;;;;;;;;;23.16;40.96;98618.50;6213529;23;19919;-96
2023/07/21 13:19:38;;;;;;;;;;;;;;;23.06;39.92;98626.97;6241430;23;19915;-94
2023/07/21 13:22:08;;;;;;;;;;;;;;;23.08;41.40;98621.78;6241140;23;19899;-96
2023/07/21 13:24:42;;;;;;;;;;;;;;;23.11;40.95;98629.31;6260576;23;19919;-94
2023/07/21 13:27:34;;;;;;;;;;;;;;;23.09;39.30;98628.94;6174450;23;19976;-95
2023/07/21 13:30:19;;;;;;;;;;;;;;;23.38;40.59;98618.28;6149299;23;19990;-95
2023/07/21 13:32:47;;;;;;;;;;;;;;;23.78;38.63;98618.63;6173833;23;20007;-95
2023/07/21 13:38:13;;;;;;;;;;;;;;;24.18;40.07;98613.25;6139958;23;19920;-94
2023/07/21 13:41:29;;;;;;;;;;;;;;;24.20;37.31;98613.63;6229759;23;19935;-96
2023/07/21 13:43:58;;;;;;;;;;;;;;;24.07;35.92;98616.19;6199311;23;19919;-96
2023/07/21 13:47:12;;;;;;;;;;;;;;;23.86;36.19;98617.28;6110885;23;19920;-93
2023/07/21 13:50:09;;;;;;;;;;;;;;;23.56;37.83;98626.44;6132864;23;20087;-94
2023/07/21 13:53:20;;;;;;;;;;;;;;;23.41;37.46;98617.41;6126847;23;19949;-94
2023/07/21 13:55:48;;;;;;;;;;;;;;;23.52;36.47;98622.91;6165961;23;19932;-94
2023/07/21 13:58:18;;;;;;;;;;;;;;;23.79;35.48;98620.97;6179764;23;19915;-94
2023/07/21 14:00:56;;;;;;;;;;;;;;;23.91;35.13;98617.63;6209455;23;19964;-94
2023/07/21 14:04:07;;;;;;;;;;;;;;;23.97;34.67;98623.50;6250525;23;19920;-95
2023/07/21 14:06:45;;;;;;;;;;;;;;;24.11;35.47;98617.75;6199804;23;19920;-95
2023/07/21 14:09:35;;;;;;;;;;;;;;;24.07;33.84;98619.81;6205726;23;19919;-95
2023/07/21 14:12:12;;;;;;;;;;;;;;;24.16;33.23;98610.88;6231683;23;19927;-94
2023/07/21 14:18:02;;;;;;;;;;;;;;;24.30;34.53;98612.66;6274008;22;19926;-94
2023/07/21 14:20:55;;;;;;;;;;;;;;;24.36;34.54;98619.34;6207197;23;19920;-96
2023/07/21 14:23:22;;;;;;;;;;;;;;;24.39;34.70;98621.31;6209864;23;19911;-96
2023/07/21 14:26:24;;;;;;;;;;;;;;;24.52;33.97;98625.13;6263561;23;19951;-96
2023/07/21 14:28:56;;;;;;;;;;;;;;;24.55;32.65;98632.66;6237529;23;19940;-95
2023/07/21 14:31:25;;;;;;;;;;;;;;;24.59;34.81;98627.78;6184070;23;19927;-95
2023/07/21 14:33:51;;;;;;;;;;;;;;;24.72;34.32;98624.41;6181660;23;19919;-95
2023/07/21 14:36:35;;;;;;;;;;;;;;;24.73;33.83;98634.34;6250431;23;19935;-96
2023/07/21 14:39:36;;;;;;;;;;;;;;;24.27;32.80;98622.69;6185370;23;19920;-96
2023/07/21 14:42:04;;;;;;;;;;;;;;;23.97;32.49;98639.47;6231550;23;19919;-96
2023/07/21 14:44:39;;;;;;;;;;;;;;;24.19;32.22;98637.97;6234627;23;19959;-95
2023/07/21 14:47:33;;;;;;;;;;;;;;;24.32;33.04;98640.97;6164473;23;19975;-96
2023/07/21 14:50:36;;;;;;;;;;;;;;;24.00;33.36;98638.63;6260872;22;19965;-95
2023/07/21 14:53:11;;;;;;;;;;;;;;;24.10;33.64;98632.09;6269810;22;19942;-95
2023/07/21 14:55:38;;;;;;;;;;;;;;;24.27;34.17;98635.84;6292567;22;19963;-95
2023/07/21 14:58:12;;;;;;;;;;;;;;;24.22;33.63;98636.34;6240812;22;19919;-95
2023/07/21 15:00:40;;;;;;;;;;;;;;;24.24;32.69;98642.28;6293378;22;19925;-96
2023/07/21 15:06:42;;;;;;;;;;;;;;;24.47;34.46;98636.78;6294937;22;20184;-96
2023/07/21 15:09:10;;;;;;;;;;;;;;;24.42;34.03;98642.84;6239543;22;19926;-96
2023/07/21 15:11:41;;;;;;;;;;;;;;;24.20;34.29;98644.34;6269963;22;19959;-96
2023/07/21 15:14:13;;;;;;;;;;;;;;;23.82;34.56;98647.25;6243264;22;19919;-95
2023/07/21 15:16:40;;;;;;;;;;;;;;;23.68;35.27;98651.81;6245150;22;19919;-96
2023/07/21 15:19:08;;;;;;;;;;;;;;;23.42;36.24;98655.28;6244574;22;19920;-96
2023/07/21 15:21:36;;;;;;;;;;;;;;;23.33;36.58;98658.56;6269042;22;19919;-96
2023/07/21 15:24:04;;;;;;;;;;;;;;;23.24;35.91;98646.31;6294125;22;19919;-96
2023/07/21 15:26:39;;;;;;;;;;;;;;;23.08;36.20;98658.81;6295112;22;19925;-96
2023/07/21 15:29:09;;;;;;;;;;;;;;;23.15;37.11;98653.19;6242018;22;19919;-96
2023/07/21 15:31:42;;;;;;;;;;;;;;;23.47;35.97;98654.81;6242004;22;19966;-95
2023/07/21 15:34:13;;;;;;;;;;;;;;;23.75;36.48;98658.53;6269876;22;19920;-95
2023/07/21 15:37:03;;;;;;;;;;;;;;;23.51;36.10;98663.13;6270695;22;19997;-96
2023/07/21 15:39:30;;;;;;;;;;;;;;;23.37;36.44;98664.09;6241964;22;19923;-94
2023/07/21 15:41:59;;;;;;;;;;;;;;;23.18;35.63;98665.50;6271424;22;19998;-95
2023/07/21 15:44:31;;;;;;;;;;;;;;;23.04;36.11;98668.41;6244172;22;19935;-96
2023/07/21 15:47:49;;;;;;;;;;;;;;;22.90;37.59;98663.72;6295376;22;19922;-95
2023/07/21 15:50:17;;;;;;;;;;;;;;;22.78;36.97;98664.22;6265803;22;19926;-95
2023/07/21 15:52:47;;;;;;;;;;;;;;;22.86;37.27;98674.13;6293354;22;19915;-96
2023/07/21 15:55:15;;;;;;;;;;;;;;;23.07;37.13;98681.53;6244380;22;19915;-94
2023/07/21 15:57:43;;;;;;;;;;;;;;;23.26;37.68;98672.56;6245050;22;19923;-95
2023/07/21 16:00:14;;;;;;;;;;;;;;;23.42;37.50;98680.38;6297902;22;19937;-95
2023/07/21 16:03:13;;;;;;;;;;;;;;;23.46;36.05;98675.56;6272384;22;19925;-96
2023/07/21 16:06:15;;;;;;;;;;;;;;;23.33;36.25;98680.88;6297558;22;19938;-96
2023/07/21 16:08:46;;;;;;;;;;;;;;;23.25;37.28;98686.94;6247932;22;19926;-94
2023/07/21 16:11:19;;;;;;;;;;;;;;;23.15;36.66;98678.28;6297178;22;19919;-94
2023/07/21 16:13:55;;;;;;;;;;;;;;;23.05;37.61;98689.53;6275854;22;19915;-94
2023/07/21 16:16:55;;;;;;;;;;;;;;;22.88;39.76;98696.78;6228763;22;19900;-93
2023/07/21 16:19:33;;;;;;;;;;;;;;;22.74;40.30;98694.91;6268451;22;19899;-94
2023/07/21 16:22:00;;;;;;;;;;;;;;;22.58;38.97;98689.06;6269554;22;19926;-94
2023/07/21 16:24:48;;;;;;;;;;;;;;;22.49;41.57;98703.47;6239646;23;19926;-94
2023/07/21 16:27:22;;;;;;;;;;;;;;;22.29;41.26;98703.19;6240497;23;19930;-94
2023/07/21 16:30:19;;;;;;;;;;;;;;;22.29;42.45;98705.97;6191645;23;20321;-94
2023/07/21 16:32:51;;;;;;;;;;;;;;;22.19;40.17;98704.03;6242564;23;20405;-96
2023/07/21 16:35:49;;;;;;;;;;;;;;;22.09;41.13;98714.00;6260023;23;19919;-95
2023/07/21 16:38:16;;;;;;;;;;;;;;;21.93;39.89;98708.91;6207483;23;19934;-94
2023/07/21 16:40:42;;;;;;;;;;;;;;;21.86;41.68;98713.72;6190595;23;19919;-94
2023/07/21 16:43:11;;;;;;;;;;;;;;;21.82;43.76;98710.94;6238285;23;19915;-96
2023/07/21 16:45:48;;;;;;;;;;;;;;;21.75;43.40;98714.50;6185463;23;19967;-94
2023/07/21 16:49:00;;;;;;;;;;;;;;;21.68;43.02;98714.53;6216278;23;19919;-94
2023/07/21 16:51:30;;;;;;;;;;;;;;;21.57;44.85;98722.94;6177312;23;19952;-95
2023/07/21 16:54:03;;;;;;;;;;;;;;;21.52;45.23;98720.56;6155483;23;19912;-95
2023/07/21 16:56:51;;;;;;;;;;;;;;;21.33;45.07;98701.50;6151040;23;20404;-95
2023/07/21 16:59:24;;;;;;;;;;;;;;;21.43;46.93;98722.19;6149485;23;20098;-93
2023/07/21 17:02:07;;;;;;;;;;;;;;;21.48;44.67;98724.53;6177366;23;19924;-93